sensor_id;sensor_type;location;lat;lon;timestamp;pressure;altitude;pressure_sealevel;temperature;humidity
32486;BME280;18935;52.236;21.134;2022-08-20T00:00:42;99244.13;;;18.31;77.18
32486;BME280;18935;52.236;21.134;2022-08-20T00:03:18;99259.00;;;18.32;77.36
32486;BME280;18935;52.236;21.134;2022-08-20T00:05:48;99266.59;;;18.25;76.24
32486;BME280;18935;52.236;21.134;2022-08-20T00:08:16;99275.56;;;18.23;75.85
32486;BME280;18935;52.236;21.134;2022-08-20T00:10:44;99275.56;;;18.23;76.43
32486;BME280;18935;52.236;21.134;2022-08-20T00:13:12;99274.28;;;18.17;76.98
32486;BME280;18935;52.236;21.134;2022-08-20T00:15:38;99281.84;;;18.11;78.01
32486;BME280;18935;52.236;21.134;2022-08-20T00:18:05;99292.50;;;18.09;78.79
32486;BME280;18935;52.236;21.134;2022-08-20T00:20:35;99290.69;;;17.98;78.69
32486;BME280;18935;52.236;21.134;2022-08-20T00:23:01;99292.97;;;17.92;79.35
32486;BME280;18935;52.236;21.134;2022-08-20T00:25:27;99285.91;;;17.81;80.42
32486;BME280;18935;52.236;21.134;2022-08-20T00:27:53;99281.81;;;17.99;78.84
32486;BME280;18935;52.236;21.134;2022-08-20T00:30:18;99282.78;;;17.98;78.61
32486;BME280;18935;52.236;21.134;2022-08-20T00:32:49;99288.91;;;17.88;79.83
32486;BME280;18935;52.236;21.134;2022-08-20T00:35:18;99293.34;;;17.87;80.11
32486;BME280;18935;52.236;21.134;2022-08-20T00:37:43;99293.56;;;17.84;81.41
32486;BME280;18935;52.236;21.134;2022-08-20T00:40:11;99287.56;;;17.82;80.50
32486;BME280;18935;52.236;21.134;2022-08-20T00:42:50;99289.72;;;17.77;80.91
32486;BME280;18935;52.236;21.134;2022-08-20T00:45:17;99290.94;;;17.73;81.79
32486;BME280;18935;52.236;21.134;2022-08-20T00:47:43;99288.78;;;17.89;80.64
32486;BME280;18935;52.236;21.134;2022-08-20T00:50:12;99286.63;;;17.94;79.71
32486;BME280;18935;52.236;21.134;2022-08-20T00:52:41;99274.16;;;17.96;78.88
32486;BME280;18935;52.236;21.134;2022-08-20T00:55:08;99274.38;;;17.93;79.64
32486;BME280;18935;52.236;21.134;2022-08-20T00:57:44;99270.91;;;17.82;80.48
32486;BME280;18935;52.236;21.134;2022-08-20T01:00:20;99270.53;;;17.75;80.89
32486;BME280;18935;52.236;21.134;2022-08-20T01:02:46;99264.75;;;17.70;81.73
32486;BME280;18935;52.236;21.134;2022-08-20T01:05:12;99260.25;;;17.72;81.71
32486;BME280;18935;52.236;21.134;2022-08-20T01:07:40;99245.84;;;17.76;81.33
32486;BME280;18935;52.236;21.134;2022-08-20T01:10:13;99239.47;;;17.78;81.01
32486;BME280;18935;52.236;21.134;2022-08-20T01:12:41;99229.25;;;17.63;81.83
32486;BME280;18935;52.236;21.134;2022-08-20T01:15:10;99227.09;;;17.68;81.70
32486;BME280;18935;52.236;21.134;2022-08-20T01:17:40;99216.81;;;17.65;81.41
32486;BME280;18935;52.236;21.134;2022-08-20T01:20:13;99215.59;;;17.58;81.88
32486;BME280;18935;52.236;21.134;2022-08-20T01:22:45;99209.84;;;17.41;82.47
32486;BME280;18935;52.236;21.134;2022-08-20T01:25:47;99204.31;;;17.44;81.77
32486;BME280;18935;52.236;21.134;2022-08-20T01:28:26;99207.19;;;17.41;81.96
32486;BME280;18935;52.236;21.134;2022-08-20T01:30:53;99200.97;;;17.42;81.15
32486;BME280;18935;52.236;21.134;2022-08-20T01:33:20;99211.72;;;17.39;81.37
32486;BME280;18935;52.236;21.134;2022-08-20T01:35:46;99202.75;;;17.42;81.18
32486;BME280;18935;52.236;21.134;2022-08-20T01:38:13;99197.97;;;17.47;80.98
32486;BME280;18935;52.236;21.134;2022-08-20T01:43:19;99195.19;;;17.37;81.70
32486;BME280;18935;52.236;21.134;2022-08-20T01:45:45;99195.44;;;17.34;81.46
32486;BME280;18935;52.236;21.134;2022-08-20T01:48:11;99197.09;;;17.24;81.95
32486;BME280;18935;52.236;21.134;2022-08-20T01:50:41;99189.88;;;17.15;82.79
32486;BME280;18935;52.236;21.134;2022-08-20T01:53:19;99187.97;;;17.17;82.74
32486;BME280;18935;52.236;21.134;2022-08-20T01:55:46;99177.28;;;17.07;83.15
32486;BME280;18935;52.236;21.134;2022-08-20T01:58:12;99180.06;;;17.17;82.82
32486;BME280;18935;52.236;21.134;2022-08-20T02:00:37;99169.53;;;17.17;82.74
32486;BME280;18935;52.236;21.134;2022-08-20T02:03:03;99168.94;;;17.13;82.75
32486;BME280;18935;52.236;21.134;2022-08-20T02:05:29;99164.00;;;17.09;83.21
32486;BME280;18935;52.236;21.134;2022-08-20T02:07:56;99166.88;;;17.06;83.42
32486;BME280;18935;52.236;21.134;2022-08-20T02:10:22;99157.63;;;17.00;83.50
32486;BME280;18935;52.236;21.134;2022-08-20T02:12:48;99162.31;;;16.97;83.64
32486;BME280;18935;52.236;21.134;2022-08-20T02:15:13;99159.69;;;16.97;83.99
32486;BME280;18935;52.236;21.134;2022-08-20T02:17:39;99161.09;;;16.89;84.48
32486;BME280;18935;52.236;21.134;2022-08-20T02:20:11;99169.72;;;16.91;84.59
32486;BME280;18935;52.236;21.134;2022-08-20T02:22:44;99163.00;;;16.87;84.86
32486;BME280;18935;52.236;21.134;2022-08-20T02:25:11;99170.16;;;16.85;85.07
32486;BME280;18935;52.236;21.134;2022-08-20T02:27:40;99165.38;;;16.79;85.45
32486;BME280;18935;52.236;21.134;2022-08-20T02:30:13;99167.50;;;16.74;85.70
32486;BME280;18935;52.236;21.134;2022-08-20T02:32:40;99165.41;;;16.66;86.14
32486;BME280;18935;52.236;21.134;2022-08-20T02:35:08;99164.56;;;16.66;86.26
32486;BME280;18935;52.236;21.134;2022-08-20T02:37:36;99168.38;;;16.62;86.60
32486;BME280;18935;52.236;21.134;2022-08-20T02:40:05;99169.22;;;16.62;86.77
32486;BME280;18935;52.236;21.134;2022-08-20T02:42:32;99172.22;;;16.58;87.10
32486;BME280;18935;52.236;21.134;2022-08-20T02:44:58;99181.16;;;16.55;87.59
32486;BME280;18935;52.236;21.134;2022-08-20T02:47:23;99188.59;;;16.61;87.40
32486;BME280;18935;52.236;21.134;2022-08-20T02:49:52;99196.09;;;16.55;87.95
32486;BME280;18935;52.236;21.134;2022-08-20T02:52:18;99194.66;;;16.51;89.02
32486;BME280;18935;52.236;21.134;2022-08-20T02:54:44;99213.09;;;16.51;89.15
32486;BME280;18935;52.236;21.134;2022-08-20T02:57:17;99207.19;;;16.47;89.65
32486;BME280;18935;52.236;21.134;2022-08-20T02:59:45;99202.56;;;16.51;90.19
32486;BME280;18935;52.236;21.134;2022-08-20T03:02:11;99214.13;;;16.48;90.24
32486;BME280;18935;52.236;21.134;2022-08-20T03:04:36;99201.09;;;16.47;89.96
32486;BME280;18935;52.236;21.134;2022-08-20T03:07:03;99193.25;;;16.58;89.51
32486;BME280;18935;52.236;21.134;2022-08-20T03:09:28;99186.69;;;16.63;88.89
32486;BME280;18935;52.236;21.134;2022-08-20T03:11:54;99185.75;;;16.64;89.07
32486;BME280;18935;52.236;21.134;2022-08-20T03:14:19;99189.31;;;16.63;88.70
32486;BME280;18935;52.236;21.134;2022-08-20T03:16:44;99188.69;;;16.49;89.46
32486;BME280;18935;52.236;21.134;2022-08-20T03:19:10;99190.84;;;16.55;89.45
32486;BME280;18935;52.236;21.134;2022-08-20T03:21:35;99173.25;;;16.55;89.02
32486;BME280;18935;52.236;21.134;2022-08-20T03:24:02;99161.03;;;16.54;88.80
32486;BME280;18935;52.236;21.134;2022-08-20T03:26:27;99151.84;;;16.49;89.58
32486;BME280;18935;52.236;21.134;2022-08-20T03:28:52;99142.44;;;16.33;90.56
32486;BME280;18935;52.236;21.134;2022-08-20T03:31:18;99145.63;;;16.26;91.05
32486;BME280;18935;52.236;21.134;2022-08-20T03:33:43;99134.22;;;16.25;91.28
32486;BME280;18935;52.236;21.134;2022-08-20T03:36:09;99134.03;;;16.28;91.27
32486;BME280;18935;52.236;21.134;2022-08-20T03:38:34;99119.91;;;16.29;91.12
32486;BME280;18935;52.236;21.134;2022-08-20T03:41:01;99128.47;;;16.20;91.58
32486;BME280;18935;52.236;21.134;2022-08-20T03:43:27;99121.75;;;16.16;91.98
32486;BME280;18935;52.236;21.134;2022-08-20T03:45:52;99119.31;;;16.26;91.39
32486;BME280;18935;52.236;21.134;2022-08-20T03:48:19;99109.50;;;16.28;91.60
32486;BME280;18935;52.236;21.134;2022-08-20T03:50:46;99111.63;;;16.23;91.52
32486;BME280;18935;52.236;21.134;2022-08-20T03:53:14;99102.19;;;16.20;91.75
32486;BME280;18935;52.236;21.134;2022-08-20T03:55:41;99104.13;;;16.29;91.46
32486;BME280;18935;52.236;21.134;2022-08-20T03:58:08;99104.84;;;16.31;91.34
32486;BME280;18935;52.236;21.134;2022-08-20T04:00:43;99105.88;;;16.42;90.62
32486;BME280;18935;52.236;21.134;2022-08-20T04:03:10;99106.69;;;16.42;90.35
32486;BME280;18935;52.236;21.134;2022-08-20T04:05:37;99120.31;;;16.36;90.96
32486;BME280;18935;52.236;21.134;2022-08-20T04:08:25;99122.44;;;16.31;91.32
32486;BME280;18935;52.236;21.134;2022-08-20T04:10:52;99136.09;;;16.36;91.85
32486;BME280;18935;52.236;21.134;2022-08-20T04:13:19;99139.59;;;16.48;91.42
32486;BME280;18935;52.236;21.134;2022-08-20T04:15:46;99153.28;;;16.53;91.79
32486;BME280;18935;52.236;21.134;2022-08-20T04:18:13;99172.22;;;16.58;92.12
32486;BME280;18935;52.236;21.134;2022-08-20T04:20:40;99171.25;;;16.59;90.99
32486;BME280;18935;52.236;21.134;2022-08-20T04:23:06;99173.53;;;16.63;91.39
32486;BME280;18935;52.236;21.134;2022-08-20T04:25:33;99180.16;;;16.69;90.79
32486;BME280;18935;52.236;21.134;2022-08-20T04:28:00;99178.16;;;16.73;90.25
32486;BME280;18935;52.236;21.134;2022-08-20T04:30:26;99181.91;;;16.81;89.68
32486;BME280;18935;52.236;21.134;2022-08-20T04:32:52;99182.06;;;16.67;91.14
32486;BME280;18935;52.236;21.134;2022-08-20T04:35:17;99174.97;;;16.80;89.88
32486;BME280;18935;52.236;21.134;2022-08-20T04:37:46;99174.59;;;16.85;89.51
32486;BME280;18935;52.236;21.134;2022-08-20T04:40:17;99180.69;;;16.85;90.09
32486;BME280;18935;52.236;21.134;2022-08-20T04:43:01;99175.22;;;16.88;89.62
32486;BME280;18935;52.236;21.134;2022-08-20T04:45:29;99178.31;;;16.93;89.17
32486;BME280;18935;52.236;21.134;2022-08-20T04:47:54;99182.06;;;17.02;88.67
32486;BME280;18935;52.236;21.134;2022-08-20T04:50:20;99187.50;;;17.12;87.75
32486;BME280;18935;52.236;21.134;2022-08-20T04:52:46;99175.50;;;17.08;87.77
32486;BME280;18935;52.236;21.134;2022-08-20T04:55:14;99182.22;;;17.12;87.62
32486;BME280;18935;52.236;21.134;2022-08-20T04:57:40;99184.63;;;17.15;87.70
32486;BME280;18935;52.236;21.134;2022-08-20T05:00:10;99191.09;;;17.22;87.49
32486;BME280;18935;52.236;21.134;2022-08-20T05:02:37;99201.78;;;17.32;86.71
32486;BME280;18935;52.236;21.134;2022-08-20T05:05:06;99201.19;;;17.39;86.93
32486;BME280;18935;52.236;21.134;2022-08-20T05:07:37;99187.53;;;17.34;87.01
32486;BME280;18935;52.236;21.134;2022-08-20T05:10:04;99181.56;;;17.43;86.15
32486;BME280;18935;52.236;21.134;2022-08-20T05:12:29;99188.97;;;17.38;85.59
32486;BME280;18935;52.236;21.134;2022-08-20T05:14:54;99181.06;;;17.38;86.25
32486;BME280;18935;52.236;21.134;2022-08-20T05:17:21;99184.19;;;17.43;85.62
32486;BME280;18935;52.236;21.134;2022-08-20T05:19:47;99177.34;;;17.18;85.97
32486;BME280;18935;52.236;21.134;2022-08-20T05:22:13;99180.44;;;17.23;86.53
32486;BME280;18935;52.236;21.134;2022-08-20T05:24:38;99181.78;;;17.40;86.08
32486;BME280;18935;52.236;21.134;2022-08-20T05:27:03;99180.59;;;17.44;85.88
32486;BME280;18935;52.236;21.134;2022-08-20T05:29:29;99174.13;;;17.48;85.21
32486;BME280;18935;52.236;21.134;2022-08-20T05:31:54;99178.19;;;17.41;85.67
32486;BME280;18935;52.236;21.134;2022-08-20T05:34:20;99188.97;;;17.38;85.70
32486;BME280;18935;52.236;21.134;2022-08-20T05:36:48;99172.94;;;17.41;85.79
32486;BME280;18935;52.236;21.134;2022-08-20T05:39:14;99176.50;;;17.40;85.89
32486;BME280;18935;52.236;21.134;2022-08-20T05:41:40;99185.63;;;17.36;86.06
32486;BME280;18935;52.236;21.134;2022-08-20T05:44:07;99187.19;;;17.50;85.90
32486;BME280;18935;52.236;21.134;2022-08-20T05:46:42;99189.72;;;17.51;85.59
32486;BME280;18935;52.236;21.134;2022-08-20T05:49:15;99187.06;;;17.63;85.21
32486;BME280;18935;52.236;21.134;2022-08-20T05:51:41;99183.75;;;17.72;84.82
32486;BME280;18935;52.236;21.134;2022-08-20T05:54:06;99183.25;;;17.78;85.05
32486;BME280;18935;52.236;21.134;2022-08-20T05:56:32;99191.16;;;17.78;85.63
32486;BME280;18935;52.236;21.134;2022-08-20T05:59:00;99192.13;;;17.77;84.28
32486;BME280;18935;52.236;21.134;2022-08-20T06:01:28;99195.38;;;17.92;83.56
32486;BME280;18935;52.236;21.134;2022-08-20T06:03:54;99187.31;;;17.93;84.08
32486;BME280;18935;52.236;21.134;2022-08-20T06:06:38;99188.75;;;18.09;83.13
32486;BME280;18935;52.236;21.134;2022-08-20T06:09:04;99196.16;;;18.15;81.74
32486;BME280;18935;52.236;21.134;2022-08-20T06:11:29;99193.78;;;18.00;81.82
32486;BME280;18935;52.236;21.134;2022-08-20T06:13:55;99202.44;;;17.91;81.79
32486;BME280;18935;52.236;21.134;2022-08-20T06:16:20;99197.16;;;17.91;81.95
32486;BME280;18935;52.236;21.134;2022-08-20T06:18:45;99200.88;;;18.11;81.38
32486;BME280;18935;52.236;21.134;2022-08-20T06:21:11;99204.56;;;18.20;80.93
32486;BME280;18935;52.236;21.134;2022-08-20T06:23:36;99203.13;;;18.27;80.96
32486;BME280;18935;52.236;21.134;2022-08-20T06:26:01;99194.72;;;18.22;80.48
32486;BME280;18935;52.236;21.134;2022-08-20T06:28:27;99197.22;;;18.34;80.76
32486;BME280;18935;52.236;21.134;2022-08-20T06:30:52;99209.94;;;18.41;79.67
32486;BME280;18935;52.236;21.134;2022-08-20T06:33:17;99204.75;;;18.39;78.84
32486;BME280;18935;52.236;21.134;2022-08-20T06:35:43;99204.03;;;18.37;79.50
32486;BME280;18935;52.236;21.134;2022-08-20T06:38:10;99207.16;;;18.42;79.59
32486;BME280;18935;52.236;21.134;2022-08-20T06:40:37;99208.56;;;18.46;80.07
32486;BME280;18935;52.236;21.134;2022-08-20T06:43:02;99212.41;;;18.53;79.78
32486;BME280;18935;52.236;21.134;2022-08-20T06:45:30;99215.97;;;18.64;80.26
32486;BME280;18935;52.236;21.134;2022-08-20T06:47:58;99222.09;;;18.75;79.99
32486;BME280;18935;52.236;21.134;2022-08-20T06:50:33;99212.59;;;18.61;79.45
32486;BME280;18935;52.236;21.134;2022-08-20T06:53:04;99211.78;;;18.61;80.08
32486;BME280;18935;52.236;21.134;2022-08-20T06:55:29;99214.09;;;18.66;80.68
32486;BME280;18935;52.236;21.134;2022-08-20T06:58:01;99214.91;;;18.66;79.65
32486;BME280;18935;52.236;21.134;2022-08-20T07:00:27;99224.38;;;18.69;79.60
32486;BME280;18935;52.236;21.134;2022-08-20T07:02:53;99208.31;;;18.72;79.14
32486;BME280;18935;52.236;21.134;2022-08-20T07:05:18;99205.41;;;18.75;79.52
32486;BME280;18935;52.236;21.134;2022-08-20T07:07:45;99210.03;;;18.82;79.11
32486;BME280;18935;52.236;21.134;2022-08-20T07:10:13;99208.31;;;18.93;77.91
32486;BME280;18935;52.236;21.134;2022-08-20T07:12:38;99207.34;;;18.94;78.14
32486;BME280;18935;52.236;21.134;2022-08-20T07:15:09;99213.69;;;19.02;77.53
32486;BME280;18935;52.236;21.134;2022-08-20T07:17:35;99218.19;;;19.11;77.73
32486;BME280;18935;52.236;21.134;2022-08-20T07:20:11;99217.34;;;19.32;75.57
32486;BME280;18935;52.236;21.134;2022-08-20T07:22:37;99217.47;;;19.51;75.08
32486;BME280;18935;52.236;21.134;2022-08-20T07:25:03;99200.22;;;19.78;74.09
32486;BME280;18935;52.236;21.134;2022-08-20T07:27:28;99213.09;;;19.92;72.38
32486;BME280;18935;52.236;21.134;2022-08-20T07:29:54;99205.56;;;19.57;73.93
32486;BME280;18935;52.236;21.134;2022-08-20T07:32:38;99213.59;;;19.55;74.74
32486;BME280;18935;52.236;21.134;2022-08-20T07:35:08;99213.59;;;19.55;75.34
32486;BME280;18935;52.236;21.134;2022-08-20T07:37:42;99202.81;;;19.68;74.51
32486;BME280;18935;52.236;21.134;2022-08-20T07:40:14;99195.19;;;19.75;74.38
32486;BME280;18935;52.236;21.134;2022-08-20T07:42:40;99205.50;;;19.78;74.52
32486;BME280;18935;52.236;21.134;2022-08-20T07:45:07;99203.25;;;19.63;nan
32486;BME280;18935;52.236;21.134;2022-08-20T07:47:35;99203.84;;;19.77;74.90
32486;BME280;18935;52.236;21.134;2022-08-20T07:50:01;99215.69;;;19.82;74.82
32486;BME280;18935;52.236;21.134;2022-08-20T07:52:27;99214.84;;;19.72;74.28
32486;BME280;18935;52.236;21.134;2022-08-20T07:54:52;99217.47;;;19.72;75.38
32486;BME280;18935;52.236;21.134;2022-08-20T07:57:18;99220.13;;;19.72;75.83
32486;BME280;18935;52.236;21.134;2022-08-20T07:59:43;99224.81;;;19.68;74.74
32486;BME280;18935;52.236;21.134;2022-08-20T08:02:10;99221.91;;;20.02;74.03
32486;BME280;18935;52.236;21.134;2022-08-20T08:04:36;99225.06;;;20.26;72.40
32486;BME280;18935;52.236;21.134;2022-08-20T08:07:03;99227.25;;;20.81;69.74
32486;BME280;18935;52.236;21.134;2022-08-20T08:09:28;99222.91;;;21.28;67.73
32486;BME280;18935;52.236;21.134;2022-08-20T08:11:55;99229.41;;;22.10;64.41
32486;BME280;18935;52.236;21.134;2022-08-20T08:14:24;99225.03;;;22.36;62.93
32486;BME280;18935;52.236;21.134;2022-08-20T08:16:53;99219.22;;;22.68;61.38
32486;BME280;18935;52.236;21.134;2022-08-20T08:19:19;99217.69;;;22.93;61.29
32486;BME280;18935;52.236;21.134;2022-08-20T08:21:45;99211.56;;;22.83;60.87
32486;BME280;18935;52.236;21.134;2022-08-20T08:24:10;99216.53;;;22.96;60.28
32486;BME280;18935;52.236;21.134;2022-08-20T08:26:36;99204.16;;;23.30;59.58
32486;BME280;18935;52.236;21.134;2022-08-20T08:29:02;99209.06;;;23.69;58.47
32486;BME280;18935;52.236;21.134;2022-08-20T08:31:27;99202.66;;;23.80;57.59
32486;BME280;18935;52.236;21.134;2022-08-20T08:33:53;99198.13;;;23.72;57.63
32486;BME280;18935;52.236;21.134;2022-08-20T08:36:19;99190.94;;;23.39;58.67
32486;BME280;18935;52.236;21.134;2022-08-20T08:38:44;99181.97;;;23.22;59.26
32486;BME280;18935;52.236;21.134;2022-08-20T08:41:24;99174.56;;;23.08;59.63
32486;BME280;18935;52.236;21.134;2022-08-20T08:46:22;99176.78;;;23.64;57.76
32486;BME280;18935;52.236;21.134;2022-08-20T08:48:49;99170.47;;;23.39;58.20
32486;BME280;18935;52.236;21.134;2022-08-20T08:51:24;99168.69;;;23.22;58.68
32486;BME280;18935;52.236;21.134;2022-08-20T08:53:52;99163.97;;;22.90;58.73
32486;BME280;18935;52.236;21.134;2022-08-20T08:56:20;99164.19;;;22.96;59.32
32486;BME280;18935;52.236;21.134;2022-08-20T08:58:47;99162.50;;;22.95;59.25
32486;BME280;18935;52.236;21.134;2022-08-20T09:01:17;99172.53;;;23.01;60.11
32486;BME280;18935;52.236;21.134;2022-08-20T09:03:46;99181.63;;;23.43;57.83
32486;BME280;18935;52.236;21.134;2022-08-20T09:06:20;99184.03;;;23.28;56.08
32486;BME280;18935;52.236;21.134;2022-08-20T09:08:52;99187.31;;;23.22;57.57
32486;BME280;18935;52.236;21.134;2022-08-20T09:11:19;99187.66;;;23.53;57.17
32486;BME280;18935;52.236;21.134;2022-08-20T09:13:45;99187.59;;;23.63;55.64
32486;BME280;18935;52.236;21.134;2022-08-20T09:16:11;99198.72;;;23.14;56.92
32486;BME280;18935;52.236;21.134;2022-08-20T09:18:38;99190.94;;;23.21;57.23
32486;BME280;18935;52.236;21.134;2022-08-20T09:21:03;99189.34;;;23.28;58.49
32486;BME280;18935;52.236;21.134;2022-08-20T09:23:29;99195.75;;;23.43;57.54
32486;BME280;18935;52.236;21.134;2022-08-20T09:25:54;99191.00;;;23.29;57.97
32486;BME280;18935;52.236;21.134;2022-08-20T09:28:19;99193.53;;;23.56;57.73
32486;BME280;18935;52.236;21.134;2022-08-20T09:30:45;99185.13;;;24.03;57.76
32486;BME280;18935;52.236;21.134;2022-08-20T09:33:10;99191.59;;;24.43;56.02
32486;BME280;18935;52.236;21.134;2022-08-20T09:35:35;99188.31;;;24.90;54.54
32486;BME280;18935;52.236;21.134;2022-08-20T09:38:02;99194.97;;;25.02;51.25
32486;BME280;18935;52.236;21.134;2022-08-20T09:40:27;99189.66;;;24.78;51.95
32486;BME280;18935;52.236;21.134;2022-08-20T09:42:52;99189.13;;;24.74;52.16
32486;BME280;18935;52.236;21.134;2022-08-20T09:45:21;99191.13;;;24.64;51.21
32486;BME280;18935;52.236;21.134;2022-08-20T09:47:47;99184.63;;;24.66;50.64
32486;BME280;18935;52.236;21.134;2022-08-20T09:50:12;99171.97;;;24.77;50.50
32486;BME280;18935;52.236;21.134;2022-08-20T09:52:44;99178.16;;;24.77;50.22
32486;BME280;18935;52.236;21.134;2022-08-20T09:55:27;99173.78;;;24.60;50.47
32486;BME280;18935;52.236;21.134;2022-08-20T09:57:55;99172.28;;;24.49;51.58
32486;BME280;18935;52.236;21.134;2022-08-20T10:00:21;99170.28;;;24.76;51.03
32486;BME280;18935;52.236;21.134;2022-08-20T10:02:47;99177.16;;;25.19;49.83
32486;BME280;18935;52.236;21.134;2022-08-20T10:05:12;99175.41;;;25.50;49.04
32486;BME280;18935;52.236;21.134;2022-08-20T10:07:39;99182.66;;;25.89;49.21
32486;BME280;18935;52.236;21.134;2022-08-20T10:10:06;99177.84;;;26.55;46.78
32486;BME280;18935;52.236;21.134;2022-08-20T10:12:32;99170.78;;;26.31;46.55
32486;BME280;18935;52.236;21.134;2022-08-20T10:14:58;99173.84;;;26.74;47.16
32486;BME280;18935;52.236;21.134;2022-08-20T10:17:23;99166.53;;;27.28;46.54
32486;BME280;18935;52.236;21.134;2022-08-20T10:19:49;99163.97;;;26.97;43.89
32486;BME280;18935;52.236;21.134;2022-08-20T10:22:14;99167.56;;;27.27;43.51
32486;BME280;18935;52.236;21.134;2022-08-20T10:24:39;99165.22;;;27.09;44.42
32486;BME280;18935;52.236;21.134;2022-08-20T10:27:04;99161.59;;;26.79;44.79
32486;BME280;18935;52.236;21.134;2022-08-20T10:29:30;99167.91;;;26.64;44.23
32486;BME280;18935;52.236;21.134;2022-08-20T10:31:56;99159.94;;;26.78;44.10
32486;BME280;18935;52.236;21.134;2022-08-20T10:34:22;99160.97;;;26.54;43.85
32486;BME280;18935;52.236;21.134;2022-08-20T10:36:48;99156.03;;;26.43;44.39
32486;BME280;18935;52.236;21.134;2022-08-20T10:39:13;99154.66;;;26.70;44.45
32486;BME280;18935;52.236;21.134;2022-08-20T10:41:39;99154.78;;;26.54;43.24
32486;BME280;18935;52.236;21.134;2022-08-20T10:44:06;99153.41;;;26.58;45.01
32486;BME280;18935;52.236;21.134;2022-08-20T10:46:31;99162.19;;;26.89;43.24
32486;BME280;18935;52.236;21.134;2022-08-20T10:48:57;99153.06;;;26.99;42.61
32486;BME280;18935;52.236;21.134;2022-08-20T10:51:22;99155.50;;;27.46;42.11
32486;BME280;18935;52.236;21.134;2022-08-20T10:53:47;99152.53;;;27.56;42.15
32486;BME280;18935;52.236;21.134;2022-08-20T10:56:13;99164.31;;;27.69;41.32
32486;BME280;18935;52.236;21.134;2022-08-20T10:58:38;99159.75;;;28.00;42.44
32486;BME280;18935;52.236;21.134;2022-08-20T11:01:03;99161.47;;;28.22;40.23
32486;BME280;18935;52.236;21.134;2022-08-20T11:03:29;99162.31;;;28.08;40.19
32486;BME280;18935;52.236;21.134;2022-08-20T11:05:55;99160.94;;;27.82;40.21
32486;BME280;18935;52.236;21.134;2022-08-20T11:08:20;99158.69;;;28.15;40.02
32486;BME280;18935;52.236;21.134;2022-08-20T11:10:45;99154.75;;;27.96;39.22
32486;BME280;18935;52.236;21.134;2022-08-20T11:13:11;99149.38;;;27.96;39.98
32486;BME280;18935;52.236;21.134;2022-08-20T11:15:40;99146.59;;;28.05;38.76
32486;BME280;18935;52.236;21.134;2022-08-20T11:18:07;99150.47;;;28.17;38.58
32486;BME280;18935;52.236;21.134;2022-08-20T11:20:33;99150.28;;;28.55;39.87
32486;BME280;18935;52.236;21.134;2022-08-20T11:22:59;99147.25;;;29.07;38.32
32486;BME280;18935;52.236;21.134;2022-08-20T11:25:25;99135.50;;;28.44;38.16
32486;BME280;18935;52.236;21.134;2022-08-20T11:27:52;99143.72;;;28.06;39.12
32486;BME280;18935;52.236;21.134;2022-08-20T11:30:24;99142.78;;;28.14;39.03
32486;BME280;18935;52.236;21.134;2022-08-20T11:32:51;99125.81;;;28.28;39.45
32486;BME280;18935;52.236;21.134;2022-08-20T11:35:16;99137.50;;;28.57;39.14
32486;BME280;18935;52.236;21.134;2022-08-20T11:37:43;99140.31;;;28.91;39.54
32486;BME280;18935;52.236;21.134;2022-08-20T11:40:09;99150.78;;;29.07;37.90
32486;BME280;18935;52.236;21.134;2022-08-20T11:42:36;99152.19;;;28.61;38.19
32486;BME280;18935;52.236;21.134;2022-08-20T11:45:02;99151.44;;;27.94;38.37
32486;BME280;18935;52.236;21.134;2022-08-20T11:47:28;99151.72;;;28.36;38.78
32486;BME280;18935;52.236;21.134;2022-08-20T11:49:59;99154.09;;;28.45;38.38
32486;BME280;18935;52.236;21.134;2022-08-20T11:52:26;99149.28;;;28.05;36.89
32486;BME280;18935;52.236;21.134;2022-08-20T11:54:52;99147.63;;;27.89;37.65
32486;BME280;18935;52.236;21.134;2022-08-20T11:57:25;99151.63;;;27.78;38.66
32486;BME280;18935;52.236;21.134;2022-08-20T11:59:53;99139.88;;;27.64;38.97
32486;BME280;18935;52.236;21.134;2022-08-20T12:02:18;99138.66;;;27.96;39.30
32486;BME280;18935;52.236;21.134;2022-08-20T12:04:44;99143.78;;;27.91;38.37
32486;BME280;18935;52.236;21.134;2022-08-20T12:07:11;99146.72;;;27.67;38.66
32486;BME280;18935;52.236;21.134;2022-08-20T12:09:37;99141.94;;;27.77;38.98
32486;BME280;18935;52.236;21.134;2022-08-20T12:12:03;99135.72;;;28.27;38.52
32486;BME280;18935;52.236;21.134;2022-08-20T12:14:28;99142.91;;;28.42;36.82
32486;BME280;18935;52.236;21.134;2022-08-20T12:16:53;99136.16;;;27.95;37.23
32486;BME280;18935;52.236;21.134;2022-08-20T12:19:19;99135.91;;;27.46;37.18
32486;BME280;18935;52.236;21.134;2022-08-20T12:21:44;99138.94;;;27.42;37.76
32486;BME280;18935;52.236;21.134;2022-08-20T12:24:09;99142.09;;;27.46;39.54
32486;BME280;18935;52.236;21.134;2022-08-20T12:26:34;99133.88;;;27.62;38.73
32486;BME280;18935;52.236;21.134;2022-08-20T12:29:00;99133.06;;;27.77;37.56
32486;BME280;18935;52.236;21.134;2022-08-20T12:31:25;99127.13;;;27.52;38.52
32486;BME280;18935;52.236;21.134;2022-08-20T12:33:50;99126.47;;;27.50;39.54
32486;BME280;18935;52.236;21.134;2022-08-20T12:36:16;99129.06;;;27.43;41.18
32486;BME280;18935;52.236;21.134;2022-08-20T12:38:41;99131.28;;;27.25;39.19
32486;BME280;18935;52.236;21.134;2022-08-20T12:41:06;99130.78;;;27.06;39.98
32486;BME280;18935;52.236;21.134;2022-08-20T12:43:31;99123.72;;;26.91;39.94
32486;BME280;18935;52.236;21.134;2022-08-20T12:45:57;99121.03;;;26.91;40.63
32486;BME280;18935;52.236;21.134;2022-08-20T12:48:22;99115.22;;;26.87;39.21
32486;BME280;18935;52.236;21.134;2022-08-20T12:50:47;99116.66;;;26.75;39.52
32486;BME280;18935;52.236;21.134;2022-08-20T12:53:14;99110.88;;;26.86;39.52
32486;BME280;18935;52.236;21.134;2022-08-20T12:55:42;99113.28;;;26.58;39.01